AEE9TP LGAV-LROP
Flight info
| Callsign | AEE9TP |
|---|---|
| Flight time | 1h 11m |
| Altitude | 34000 |
| Route | KRO T162 NEVRA UT162 KOROS UN133 ATFIR N133 USALI Q24 SOMOV DCT SORDU |
| Aircraft | A320/M-SDE3FGHIRWY/LB1 |
Departure
| Time | 2026-05-04 11:57 |
|---|---|
| Airport | Athens Eleftherios Venizelos International Airport (LGAV) |
Arrival
| Time | 2026-05-04 13:08 |
|---|---|
| Airport | Bucharest Henri Coandă International Airport (LROP) |
| Time | Latitude | Longitude | Altitude | Speed | Heading |
|---|---|---|---|---|---|
| 2026-05-04 11:28 | 37.94052 | 23.95253 | 302 ft | 0 kts | 39° |
| 2026-05-04 11:44 | 37.94052 | 23.95252 | 300 ft | 1 kts | 39° |
| 2026-05-04 11:45 | 37.94033 | 23.95233 | 302 ft | 4 kts | 43° |
| 2026-05-04 11:45 | 37.94015 | 23.95209 | 304 ft | 4 kts | 53° |
| 2026-05-04 11:45 | 37.94005 | 23.95190 | 300 ft | 4 kts | 69° |
| 2026-05-04 11:45 | 37.94004 | 23.95159 | 301 ft | 1 kts | 126° |
| 2026-05-04 11:46 | 37.94006 | 23.95155 | 301 ft | 0 kts | 126° |
| 2026-05-04 11:49 | 37.94005 | 23.95157 | 301 ft | 1 kts | 126° |
| 2026-05-04 11:49 | 37.93995 | 23.95175 | 301 ft | 4 kts | 126° |
| 2026-05-04 11:50 | 37.93974 | 23.95212 | 300 ft | 7 kts | 126° |
| 2026-05-04 11:50 | 37.93941 | 23.95269 | 300 ft | 9 kts | 126° |
| 2026-05-04 11:50 | 37.93895 | 23.95345 | 299 ft | 12 kts | 128° |
| 2026-05-04 11:50 | 37.93845 | 23.95426 | 298 ft | 9 kts | 133° |
| 2026-05-04 11:51 | 37.93778 | 23.95403 | 297 ft | 12 kts | 216° |
| 2026-05-04 11:51 | 37.93708 | 23.95336 | 298 ft | 13 kts | 217° |
| 2026-05-04 11:51 | 37.93629 | 23.95262 | 299 ft | 15 kts | 217° |
| 2026-05-04 11:51 | 37.93543 | 23.95180 | 299 ft | 16 kts | 217° |
| 2026-05-04 11:52 | 37.93450 | 23.95092 | 300 ft | 17 kts | 217° |
| 2026-05-04 11:52 | 37.93350 | 23.94997 | 301 ft | 19 kts | 217° |
| 2026-05-04 11:52 | 37.93240 | 23.94893 | 299 ft | 20 kts | 217° |
| 2026-05-04 11:52 | 37.93129 | 23.94787 | 299 ft | 17 kts | 217° |
| 2026-05-04 11:53 | 37.93029 | 23.94692 | 301 ft | 19 kts | 217° |
| 2026-05-04 11:53 | 37.92921 | 23.94590 | 303 ft | 20 kts | 217° |
| 2026-05-04 11:53 | 37.92805 | 23.94480 | 304 ft | 21 kts | 217° |
| 2026-05-04 11:53 | 37.92699 | 23.94380 | 305 ft | 19 kts | 217° |
| 2026-05-04 11:55 | 37.92418 | 23.94385 | 309 ft | 7 kts | 70° |
| 2026-05-04 11:55 | 37.92435 | 23.94404 | 309 ft | 0 kts | 35° |
| 2026-05-04 11:56 | 37.92436 | 23.94405 | 309 ft | 1 kts | 35° |
| 2026-05-04 11:56 | 37.92448 | 23.94417 | 309 ft | 4 kts | 35° |
| 2026-05-04 11:56 | 37.92592 | 23.94555 | 305 ft | 59 kts | 37° |
| 2026-05-04 11:56 | 37.93095 | 23.95032 | 298 ft | 119 kts | 37° |
| 2026-05-04 11:57 | 37.93887 | 23.95777 | 283 ft | 163 kts | 37° |
| 2026-05-04 11:57 | 37.94772 | 23.96664 | 878 ft | 158 kts | 40° |
| 2026-05-04 11:57 | 37.95647 | 23.97536 | 1499 ft | 161 kts | 31° |
| 2026-05-04 11:57 | 37.96551 | 23.98399 | 2069 ft | 167 kts | 32° |
| 2026-05-04 11:58 | 37.97544 | 23.99326 | 2352 ft | 189 kts | 32° |
| 2026-05-04 11:58 | 37.98671 | 24.00367 | 2613 ft | 211 kts | 33° |
| 2026-05-04 11:58 | 37.99917 | 24.01516 | 2907 ft | 236 kts | 32° |
| 2026-05-04 11:58 | 38.01299 | 24.02800 | 3451 ft | 253 kts | 32° |
| 2026-05-04 11:59 | 38.02729 | 24.04141 | 4258 ft | 258 kts | 33° |
| 2026-05-04 11:59 | 38.04191 | 24.05513 | 5110 ft | 263 kts | 34° |
| 2026-05-04 11:59 | 38.05664 | 24.06897 | 6028 ft | 264 kts | 33° |
| 2026-05-04 11:59 | 38.07159 | 24.08300 | 6821 ft | 269 kts | 33° |
| 2026-05-04 12:00 | 38.08674 | 24.09722 | 7643 ft | 271 kts | 33° |
| 2026-05-04 12:00 | 38.10195 | 24.11149 | 8500 ft | 273 kts | 33° |
| 2026-05-04 12:00 | 38.11726 | 24.12583 | 9336 ft | 274 kts | 33° |
| 2026-05-04 12:00 | 38.13268 | 24.14026 | 10157 ft | 276 kts | 33° |
| 2026-05-04 12:01 | 38.14849 | 24.15506 | 10611 ft | 292 kts | 34° |
| 2026-05-04 12:01 | 38.16547 | 24.17093 | 10782 ft | 314 kts | 34° |
| 2026-05-04 12:02 | 38.27878 | 24.27758 | 14345 ft | 348 kts | 34° |
| 2026-05-04 12:03 | 38.29807 | 24.29579 | 14883 ft | 352 kts | 35° |
| 2026-05-04 12:03 | 38.31787 | 24.31446 | 15410 ft | 356 kts | 35° |
| 2026-05-04 12:03 | 38.33788 | 24.33334 | 15948 ft | 360 kts | 36° |
| 2026-05-04 12:03 | 38.35810 | 24.35246 | 16478 ft | 363 kts | 36° |
| 2026-05-04 12:04 | 38.37867 | 24.37143 | 17024 ft | 367 kts | 31° |
| 2026-05-04 12:04 | 38.40222 | 24.38415 | 17544 ft | 371 kts | 13° |
| 2026-05-04 12:04 | 38.42796 | 24.38631 | 18200 ft | 372 kts | 354° |
| 2026-05-04 12:04 | 38.45368 | 24.38147 | 18718 ft | 377 kts | 352° |
| 2026-05-04 12:05 | 38.47981 | 24.37627 | 19126 ft | 383 kts | 352° |
| 2026-05-04 12:05 | 38.50627 | 24.37098 | 19637 ft | 386 kts | 352° |
| 2026-05-04 12:05 | 38.53295 | 24.36566 | 20174 ft | 389 kts | 353° |
| 2026-05-04 12:05 | 38.55981 | 24.36034 | 20693 ft | 393 kts | 352° |
| 2026-05-04 12:06 | 38.58661 | 24.35504 | 21161 ft | 397 kts | 352° |
| 2026-05-04 12:06 | 38.61404 | 24.34963 | 21627 ft | 400 kts | 353° |
| 2026-05-04 12:06 | 38.64167 | 24.34416 | 22108 ft | 402 kts | 353° |
| 2026-05-04 12:06 | 38.66950 | 24.33867 | 22556 ft | 406 kts | 352° |
| 2026-05-04 12:07 | 38.69751 | 24.33314 | 22979 ft | 409 kts | 352° |
| 2026-05-04 12:07 | 38.72575 | 24.32754 | 23400 ft | 412 kts | 352° |
| 2026-05-04 12:07 | 38.75422 | 24.32188 | 23834 ft | 414 kts | 353° |
| 2026-05-04 12:07 | 38.78278 | 24.31620 | 24211 ft | 417 kts | 352° |
| 2026-05-04 12:08 | 38.81154 | 24.31046 | 24565 ft | 419 kts | 352° |
| 2026-05-04 12:08 | 38.84044 | 24.30468 | 24933 ft | 421 kts | 353° |
| 2026-05-04 12:08 | 38.86908 | 24.29896 | 25293 ft | 422 kts | 353° |
| 2026-05-04 12:08 | 38.89812 | 24.29315 | 25652 ft | 424 kts | 353° |
| 2026-05-04 12:09 | 38.92732 | 24.28731 | 25979 ft | 426 kts | 352° |
| 2026-05-04 12:09 | 38.95674 | 24.28145 | 26290 ft | 429 kts | 353° |
| 2026-05-04 12:09 | 38.98649 | 24.27554 | 26591 ft | 432 kts | 352° |
| 2026-05-04 12:09 | 39.01636 | 24.26961 | 26904 ft | 435 kts | 353° |
| 2026-05-04 12:10 | 39.04636 | 24.26362 | 27227 ft | 437 kts | 352° |
| 2026-05-04 12:10 | 39.07653 | 24.25756 | 27553 ft | 439 kts | 352° |
| 2026-05-04 12:10 | 39.10683 | 24.25146 | 27879 ft | 442 kts | 353° |
| 2026-05-04 12:10 | 39.13687 | 24.24542 | 28187 ft | 444 kts | 352° |
| 2026-05-04 12:11 | 39.16749 | 24.23927 | 28507 ft | 446 kts | 353° |
| 2026-05-04 12:11 | 39.19815 | 24.23308 | 28913 ft | 446 kts | 353° |
| 2026-05-04 12:11 | 39.22876 | 24.22688 | 29340 ft | 445 kts | 353° |
| 2026-05-04 12:11 | 39.25938 | 24.22070 | 29794 ft | 445 kts | 353° |
| 2026-05-04 12:12 | 39.28999 | 24.21452 | 30234 ft | 444 kts | 353° |
| 2026-05-04 12:12 | 39.32057 | 24.20834 | 30659 ft | 442 kts | 353° |
| 2026-05-04 12:12 | 39.35052 | 24.20230 | 31136 ft | 438 kts | 352° |
| 2026-05-04 12:12 | 39.38048 | 24.19626 | 31656 ft | 434 kts | 352° |
| 2026-05-04 12:13 | 39.41027 | 24.19026 | 32141 ft | 431 kts | 353° |
| 2026-05-04 12:14 | 39.61280 | 24.14914 | 34132 ft | 423 kts | 351° |
| 2026-05-04 12:15 | 39.67120 | 24.13720 | 34132 ft | 426 kts | 351° |
| 2026-05-04 12:15 | 39.72982 | 24.12519 | 34133 ft | 426 kts | 351° |
| 2026-05-04 12:16 | 39.78847 | 24.11318 | 34130 ft | 426 kts | 351° |
| 2026-05-04 12:16 | 39.84716 | 24.10125 | 34120 ft | 427 kts | 352° |
| 2026-05-04 12:17 | 39.90600 | 24.08920 | 34110 ft | 429 kts | 352° |
| 2026-05-04 12:17 | 39.96508 | 24.07696 | 34113 ft | 430 kts | 352° |
| 2026-05-04 12:18 | 40.02388 | 24.06484 | 34107 ft | 430 kts | 352° |
| 2026-05-04 12:18 | 40.08310 | 24.05259 | 34121 ft | 430 kts | 352° |
| 2026-05-04 12:19 | 40.14228 | 24.04032 | 34120 ft | 430 kts | 352° |
| 2026-05-04 12:19 | 40.20143 | 24.02812 | 34129 ft | 430 kts | 352° |
| 2026-05-04 12:20 | 40.26053 | 24.01590 | 34123 ft | 430 kts | 352° |
| 2026-05-04 12:20 | 40.31927 | 24.00370 | 34125 ft | 430 kts | 352° |
| 2026-05-04 12:21 | 40.37836 | 23.99140 | 34124 ft | 430 kts | 352° |
| 2026-05-04 12:21 | 40.43753 | 23.97905 | 34129 ft | 430 kts | 352° |
| 2026-05-04 12:22 | 40.49675 | 23.96665 | 34108 ft | 431 kts | 352° |
| 2026-05-04 12:22 | 40.55624 | 23.95423 | 34095 ft | 433 kts | 352° |
| 2026-05-04 12:23 | 40.61554 | 23.94175 | 34095 ft | 434 kts | 352° |
| 2026-05-04 12:23 | 40.67525 | 23.92924 | 34087 ft | 435 kts | 352° |
| 2026-05-04 12:24 | 40.73528 | 23.91666 | 34079 ft | 436 kts | 352° |
| 2026-05-04 12:24 | 40.79536 | 23.90398 | 34077 ft | 438 kts | 352° |
| 2026-05-04 12:25 | 40.85554 | 23.89122 | 34080 ft | 439 kts | 352° |
| 2026-05-04 12:25 | 40.91593 | 23.87847 | 34067 ft | 440 kts | 352° |
| 2026-05-04 12:26 | 40.97618 | 23.86566 | 34071 ft | 442 kts | 352° |
| 2026-05-04 12:26 | 41.03701 | 23.85272 | 34069 ft | 443 kts | 353° |
| 2026-05-04 12:27 | 41.09804 | 23.83974 | 34064 ft | 444 kts | 352° |
| 2026-05-04 12:27 | 41.15912 | 23.82671 | 34064 ft | 445 kts | 352° |
| 2026-05-04 12:28 | 41.22008 | 23.81373 | 34058 ft | 446 kts | 352° |
| 2026-05-04 12:28 | 41.28182 | 23.80051 | 34065 ft | 446 kts | 353° |
| 2026-05-04 12:29 | 41.34284 | 23.78743 | 34060 ft | 448 kts | 353° |
| 2026-05-04 12:29 | 41.40463 | 23.77421 | 34059 ft | 450 kts | 354° |
| 2026-05-04 12:30 | 41.46690 | 23.76380 | 34052 ft | 450 kts | 356° |
| 2026-05-04 12:30 | 41.52945 | 23.75596 | 34053 ft | 451 kts | 356° |
| 2026-05-04 12:31 | 41.59177 | 23.74798 | 34066 ft | 453 kts | 356° |
| 2026-05-04 12:31 | 41.64386 | 23.74073 | 34099 ft | 451 kts | 355° |
| 2026-05-04 12:32 | 41.73744 | 23.72716 | 34111 ft | 450 kts | 356° |
| 2026-05-04 12:33 | 41.79965 | 23.71820 | 34110 ft | 449 kts | 355° |
| 2026-05-04 12:33 | 41.87200 | 23.70776 | 34117 ft | 449 kts | 356° |
| 2026-05-04 12:34 | 41.92408 | 23.70026 | 34103 ft | 450 kts | 356° |
| 2026-05-04 12:34 | 41.98605 | 23.69133 | 34095 ft | 451 kts | 356° |
| 2026-05-04 12:35 | 42.04865 | 23.68229 | 34095 ft | 452 kts | 355° |
| 2026-05-04 12:35 | 42.11122 | 23.67326 | 34086 ft | 453 kts | 356° |
| 2026-05-04 12:36 | 42.17402 | 23.66413 | 34094 ft | 454 kts | 355° |
| 2026-05-04 12:36 | 42.23695 | 23.65504 | 34099 ft | 454 kts | 355° |
| 2026-05-04 12:37 | 42.29952 | 23.64806 | 34104 ft | 453 kts | 3° |
| 2026-05-04 12:37 | 42.36175 | 23.65840 | 34106 ft | 450 kts | 11° |
| 2026-05-04 12:38 | 42.42370 | 23.67188 | 34111 ft | 451 kts | 11° |
| 2026-05-04 12:38 | 42.48570 | 23.68522 | 34109 ft | 451 kts | 11° |
| 2026-05-04 12:39 | 42.54723 | 23.70149 | 34107 ft | 449 kts | 20° |
| 2026-05-04 12:39 | 42.60265 | 23.73878 | 34107 ft | 444 kts | 38° |
| 2026-05-04 12:40 | 42.64918 | 23.79272 | 34113 ft | 443 kts | 44° |
| 2026-05-04 12:40 | 42.69823 | 23.84373 | 34107 ft | 445 kts | 38° |
| 2026-05-04 12:41 | 42.74933 | 23.89168 | 34109 ft | 446 kts | 37° |
| 2026-05-04 12:41 | 42.80044 | 23.93981 | 34114 ft | 446 kts | 38° |
| 2026-05-04 12:42 | 42.85144 | 23.98816 | 34111 ft | 447 kts | 37° |
| 2026-05-04 12:42 | 42.90212 | 24.03636 | 34116 ft | 447 kts | 37° |
| 2026-05-04 12:43 | 42.95313 | 24.08492 | 34122 ft | 447 kts | 37° |
| 2026-05-04 12:43 | 43.00418 | 24.13360 | 34118 ft | 447 kts | 36° |
| 2026-05-04 12:44 | 43.05522 | 24.18235 | 34120 ft | 448 kts | 37° |
| 2026-05-04 12:44 | 43.10623 | 24.23139 | 34120 ft | 448 kts | 37° |
| 2026-05-04 12:45 | 43.15632 | 24.28222 | 34106 ft | 447 kts | 39° |
| 2026-05-04 12:45 | 43.20553 | 24.33386 | 34096 ft | 448 kts | 39° |
| 2026-05-04 12:46 | 43.25518 | 24.38575 | 34097 ft | 449 kts | 38° |
| 2026-05-04 12:46 | 43.30503 | 24.43726 | 34087 ft | 449 kts | 38° |
| 2026-05-04 12:47 | 43.35499 | 24.48902 | 33797 ft | 450 kts | 38° |
| 2026-05-04 12:47 | 43.37994 | 24.51494 | 33471 ft | 449 kts | 38° |
| 2026-05-04 12:47 | 43.40503 | 24.54099 | 32293 ft | 453 kts | 39° |
| 2026-05-04 12:47 | 43.43008 | 24.56704 | 31189 ft | 450 kts | 39° |
| 2026-05-04 12:48 | 43.45512 | 24.59317 | 30289 ft | 453 kts | 40° |
| 2026-05-04 12:48 | 43.48030 | 24.61953 | 29419 ft | 453 kts | 40° |
| 2026-05-04 12:48 | 43.50486 | 24.64520 | 28952 ft | 444 kts | 39° |
| 2026-05-04 12:48 | 43.52934 | 24.67072 | 28330 ft | 439 kts | 39° |
| 2026-05-04 12:49 | 43.55359 | 24.69601 | 27725 ft | 434 kts | 39° |
| 2026-05-04 12:49 | 43.57752 | 24.72108 | 27125 ft | 429 kts | 39° |
| 2026-05-04 12:49 | 43.60113 | 24.74592 | 26541 ft | 424 kts | 39° |
| 2026-05-04 12:49 | 43.62451 | 24.77054 | 25957 ft | 420 kts | 38° |
| 2026-05-04 12:50 | 43.64765 | 24.79492 | 25381 ft | 416 kts | 38° |
| 2026-05-04 12:50 | 43.67030 | 24.81880 | 24814 ft | 412 kts | 38° |
| 2026-05-04 12:50 | 43.69274 | 24.84323 | 24288 ft | 408 kts | 42° |
| 2026-05-04 12:50 | 43.71218 | 24.87108 | 24078 ft | 400 kts | 50° |
| 2026-05-04 12:51 | 43.72961 | 24.90113 | 23689 ft | 401 kts | 50° |
| 2026-05-04 12:51 | 43.74723 | 24.93159 | 22575 ft | 408 kts | 50° |
| 2026-05-04 12:51 | 43.76487 | 24.96208 | 21941 ft | 403 kts | 50° |
| 2026-05-04 12:51 | 43.78222 | 24.99210 | 21404 ft | 396 kts | 50° |
| 2026-05-04 12:52 | 43.79933 | 25.02173 | 20858 ft | 391 kts | 50° |
| 2026-05-04 12:52 | 43.81618 | 25.05097 | 20321 ft | 386 kts | 50° |
| 2026-05-04 12:52 | 43.83285 | 25.07993 | 19786 ft | 383 kts | 50° |
| 2026-05-04 12:52 | 43.84939 | 25.10866 | 19246 ft | 380 kts | 50° |
| 2026-05-04 12:53 | 43.86579 | 25.13719 | 18732 ft | 377 kts | 50° |
| 2026-05-04 12:53 | 43.88209 | 25.16560 | 18182 ft | 375 kts | 50° |
| 2026-05-04 12:53 | 43.89805 | 25.19345 | 17646 ft | 372 kts | 50° |
| 2026-05-04 12:53 | 43.91405 | 25.22145 | 17134 ft | 367 kts | 50° |
| 2026-05-04 12:54 | 43.92979 | 25.24901 | 16624 ft | 362 kts | 50° |
| 2026-05-04 12:54 | 43.94535 | 25.27623 | 16122 ft | 358 kts | 50° |
| 2026-05-04 12:54 | 43.96071 | 25.30312 | 15633 ft | 353 kts | 51° |
| 2026-05-04 12:54 | 43.97591 | 25.32972 | 15144 ft | 349 kts | 51° |
| 2026-05-04 12:55 | 43.99084 | 25.35588 | 14669 ft | 343 kts | 51° |
| 2026-05-04 12:55 | 44.00560 | 25.38171 | 14195 ft | 338 kts | 51° |
| 2026-05-04 12:55 | 44.02010 | 25.40713 | 13716 ft | 333 kts | 51° |
| 2026-05-04 12:55 | 44.03528 | 25.43111 | 13231 ft | 328 kts | 43° |
| 2026-05-04 12:56 | 44.05310 | 25.45035 | 12775 ft | 322 kts | 33° |
| 2026-05-04 12:56 | 44.07300 | 25.46425 | 12336 ft | 319 kts | 24° |
| 2026-05-04 12:56 | 44.09354 | 25.47574 | 11893 ft | 316 kts | 23° |
| 2026-05-04 12:56 | 44.11386 | 25.48718 | 11456 ft | 314 kts | 23° |
| 2026-05-04 12:57 | 44.13403 | 25.49858 | 11012 ft | 311 kts | 23° |
| 2026-05-04 12:57 | 44.15395 | 25.50989 | 10648 ft | 306 kts | 23° |
| 2026-05-04 12:57 | 44.17324 | 25.52083 | 10530 ft | 293 kts | 23° |
| 2026-05-04 12:57 | 44.19175 | 25.53134 | 10404 ft | 281 kts | 23° |
| 2026-05-04 12:58 | 44.20660 | 25.53977 | 10294 ft | 272 kts | 23° |
| 2026-05-04 12:58 | 44.22302 | 25.54910 | 10165 ft | 263 kts | 23° |
| 2026-05-04 12:58 | 44.23980 | 25.55866 | 9954 ft | 257 kts | 23° |
| 2026-05-04 12:58 | 44.25626 | 25.56803 | 9824 ft | 255 kts | 23° |
| 2026-05-04 12:59 | 44.27272 | 25.57741 | 9545 ft | 256 kts | 23° |
| 2026-05-04 12:59 | 44.28929 | 25.58686 | 9136 ft | 258 kts | 23° |
| 2026-05-04 12:59 | 44.30595 | 25.59636 | 8725 ft | 259 kts | 23° |
| 2026-05-04 12:59 | 44.32253 | 25.60583 | 8416 ft | 256 kts | 22° |
| 2026-05-04 13:00 | 44.33910 | 25.61530 | 8043 ft | 256 kts | 23° |
| 2026-05-04 13:00 | 44.35545 | 25.62465 | 7671 ft | 251 kts | 23° |
| 2026-05-04 13:00 | 44.37157 | 25.63389 | 7099 ft | 249 kts | 23° |
| 2026-05-04 13:00 | 44.38755 | 25.64308 | 6669 ft | 248 kts | 23° |
| 2026-05-04 13:01 | 44.40348 | 25.65225 | 6245 ft | 247 kts | 23° |
| 2026-05-04 13:01 | 44.41949 | 25.66146 | 5837 ft | 250 kts | 23° |
| 2026-05-04 13:01 | 44.43540 | 25.67061 | 5455 ft | 250 kts | 22° |
| 2026-05-04 13:01 | 44.45159 | 25.67991 | 5047 ft | 252 kts | 22° |
| 2026-05-04 13:02 | 44.46786 | 25.68926 | 4666 ft | 254 kts | 22° |
| 2026-05-04 13:02 | 44.48421 | 25.69872 | 4249 ft | 257 kts | 24° |
| 2026-05-04 13:02 | 44.49887 | 25.71251 | 4085 ft | 251 kts | 42° |
| 2026-05-04 13:02 | 44.50950 | 25.73132 | 3985 ft | 243 kts | 59° |
| 2026-05-04 13:03 | 44.51718 | 25.75184 | 3885 ft | 233 kts | 60° |
| 2026-05-04 13:03 | 44.52448 | 25.77150 | 3784 ft | 222 kts | 60° |
| 2026-05-04 13:03 | 44.53148 | 25.79028 | 3690 ft | 213 kts | 60° |
| 2026-05-04 13:03 | 44.53820 | 25.80823 | 3593 ft | 204 kts | 60° |
| 2026-05-04 13:04 | 44.54445 | 25.82557 | 3539 ft | 192 kts | 67° |
| 2026-05-04 13:04 | 44.54675 | 25.84342 | 3328 ft | 188 kts | 82° |
| 2026-05-04 13:04 | 44.54810 | 25.86179 | 3063 ft | 191 kts | 84° |
| 2026-05-04 13:04 | 44.54952 | 25.88054 | 2817 ft | 195 kts | 83° |
| 2026-05-04 13:05 | 44.55095 | 25.89912 | 2557 ft | 185 kts | 83° |
| 2026-05-04 13:05 | 44.55227 | 25.91610 | 2389 ft | 167 kts | 84° |
| 2026-05-04 13:05 | 44.55349 | 25.93176 | 2171 ft | 159 kts | 84° |
| 2026-05-04 13:05 | 44.55460 | 25.94605 | 2011 ft | 155 kts | 83° |
| 2026-05-04 13:06 | 44.55576 | 25.96096 | 1829 ft | 153 kts | 84° |
| 2026-05-04 13:06 | 44.55690 | 25.97565 | 1639 ft | 152 kts | 84° |
| 2026-05-04 13:06 | 44.55803 | 25.99036 | 1442 ft | 151 kts | 84° |
| 2026-05-04 13:06 | 44.55916 | 26.00508 | 1273 ft | 152 kts | 83° |
| 2026-05-04 13:07 | 44.56026 | 26.01945 | 1091 ft | 148 kts | 84° |
| 2026-05-04 13:07 | 44.56134 | 26.03359 | 904 ft | 144 kts | 84° |
| 2026-05-04 13:07 | 44.56239 | 26.04742 | 741 ft | 141 kts | 84° |
| 2026-05-04 13:07 | 44.56347 | 26.06103 | 564 ft | 139 kts | 84° |
| 2026-05-04 13:08 | 44.56449 | 26.07441 | 407 ft | 137 kts | 84° |
| 2026-05-04 13:08 | 44.56546 | 26.08733 | 319 ft | 120 kts | 84° |
| 2026-05-04 13:08 | 44.56616 | 26.09651 | 320 ft | 70 kts | 84° |
| 2026-05-04 13:08 | 44.56650 | 26.10104 | 322 ft | 32 kts | 84° |
| 2026-05-04 13:09 | 44.56673 | 26.10411 | 321 ft | 32 kts | 84° |
| 2026-05-04 13:09 | 44.56695 | 26.10690 | 321 ft | 20 kts | 83° |
| 2026-05-04 13:09 | 44.56752 | 26.10767 | 321 ft | 13 kts | 8° |
| 2026-05-04 13:09 | 44.56835 | 26.10756 | 321 ft | 12 kts | 353° |
| 2026-05-04 13:10 | 44.56928 | 26.10740 | 321 ft | 14 kts | 352° |
| 2026-05-04 13:10 | 44.57018 | 26.10674 | 321 ft | 16 kts | 306° |
| 2026-05-04 13:10 | 44.57062 | 26.10549 | 321 ft | 13 kts | 287° |
| 2026-05-04 13:10 | 44.57063 | 26.10415 | 321 ft | 15 kts | 264° |
| 2026-05-04 13:11 | 44.57052 | 26.10276 | 321 ft | 13 kts | 264° |
| 2026-05-04 13:11 | 44.57041 | 26.10135 | 321 ft | 16 kts | 264° |
| 2026-05-04 13:11 | 44.57030 | 26.09995 | 321 ft | 13 kts | 264° |
| 2026-05-04 13:11 | 44.57019 | 26.09858 | 321 ft | 15 kts | 264° |
| 2026-05-04 13:12 | 44.57008 | 26.09700 | 321 ft | 17 kts | 264° |
| 2026-05-04 13:12 | 44.56994 | 26.09528 | 321 ft | 15 kts | 263° |
| 2026-05-04 13:12 | 44.56982 | 26.09372 | 321 ft | 17 kts | 264° |
| 2026-05-04 13:12 | 44.56969 | 26.09195 | 321 ft | 19 kts | 263° |
| 2026-05-04 13:13 | 44.56953 | 26.08997 | 321 ft | 22 kts | 264° |
| 2026-05-04 13:13 | 44.56943 | 26.08856 | 320 ft | 11 kts | 264° |
| 2026-05-04 13:13 | 44.56934 | 26.08740 | 318 ft | 13 kts | 264° |
| 2026-05-04 13:13 | 44.56925 | 26.08622 | 320 ft | 12 kts | 264° |
| 2026-05-04 13:14 | 44.56961 | 26.08543 | 320 ft | 12 kts | 351° |
| 2026-05-04 13:14 | 44.57036 | 26.08533 | 320 ft | 11 kts | 354° |
| 2026-05-04 13:14 | 44.57121 | 26.08520 | 320 ft | 14 kts | 354° |
| 2026-05-04 13:14 | 44.57201 | 26.08509 | 320 ft | 8 kts | 354° |
| 2026-05-04 13:15 | 44.57234 | 26.08467 | 320 ft | 8 kts | 279° |
| 2026-05-04 13:15 | 44.57228 | 26.08381 | 320 ft | 10 kts | 263° |
| 2026-05-04 13:15 | 44.57212 | 26.08277 | 320 ft | 11 kts | 257° |
| 2026-05-04 13:15 | 44.57203 | 26.08182 | 320 ft | 9 kts | 264° |
| 2026-05-04 13:16 | 44.57197 | 26.08116 | 320 ft | 5 kts | 253° |
| 2026-05-04 13:16 | 44.57161 | 26.08109 | 320 ft | 5 kts | 172° |
| 2026-05-04 13:16 | 44.57149 | 26.08111 | 320 ft | 2 kts | 172° |
| 2026-05-04 13:16 | 44.57146 | 26.08111 | 320 ft | 0 kts | 172° |